sensor_id;sensor_type;location;lat;lon;timestamp;temperature;humidity
71128;SHT30;59249;59.736;30.568;2022-10-22T00:00:13;7.77;87.44
71128;SHT30;59249;59.736;30.568;2022-10-22T00:02:43;7.75;87.53
71128;SHT30;59249;59.736;30.568;2022-10-22T00:05:13;7.75;87.37
71128;SHT30;59249;59.736;30.568;2022-10-22T00:07:45;7.80;87.50
71128;SHT30;59249;59.736;30.568;2022-10-22T00:10:14;7.77;87.44
71128;SHT30;59249;59.736;30.568;2022-10-22T00:12:46;7.73;87.45
71128;SHT30;59249;59.736;30.568;2022-10-22T00:15:18;7.74;87.41
71128;SHT30;59249;59.736;30.568;2022-10-22T00:17:47;7.67;87.51
71128;SHT30;59249;59.736;30.568;2022-10-22T00:20:16;7.70;87.48
71128;SHT30;59249;59.736;30.568;2022-10-22T00:22:45;7.61;87.64
71128;SHT30;59249;59.736;30.568;2022-10-22T00:25:14;7.63;87.88
71128;SHT30;59249;59.736;30.568;2022-10-22T00:27:44;7.65;87.92
71128;SHT30;59249;59.736;30.568;2022-10-22T00:30:14;7.61;87.82
71128;SHT30;59249;59.736;30.568;2022-10-22T00:32:46;7.60;88.00
71128;SHT30;59249;59.736;30.568;2022-10-22T00:35:15;7.61;88.08
71128;SHT30;59249;59.736;30.568;2022-10-22T00:37:43;7.64;87.98
71128;SHT30;59249;59.736;30.568;2022-10-22T00:40:12;7.66;87.93
71128;SHT30;59249;59.736;30.568;2022-10-22T00:42:41;7.63;88.12
71128;SHT30;59249;59.736;30.568;2022-10-22T00:45:21;7.59;88.16
71128;SHT30;59249;59.736;30.568;2022-10-22T00:47:56;7.66;88.21
71128;SHT30;59249;59.736;30.568;2022-10-22T00:50:31;7.63;88.20
71128;SHT30;59249;59.736;30.568;2022-10-22T00:53:06;7.68;88.17
71128;SHT30;59249;59.736;30.568;2022-10-22T00:55:38;7.66;87.95
71128;SHT30;59249;59.736;30.568;2022-10-22T00:58:12;7.60;88.35
71128;SHT30;59249;59.736;30.568;2022-10-22T01:00:42;7.59;88.39
71128;SHT30;59249;59.736;30.568;2022-10-22T01:03:13;7.53;88.35
71128;SHT30;59249;59.736;30.568;2022-10-22T01:05:48;7.60;88.07
71128;SHT30;59249;59.736;30.568;2022-10-22T01:08:25;7.54;88.08
71128;SHT30;59249;59.736;30.568;2022-10-22T01:11:10;7.50;88.29
71128;SHT30;59249;59.736;30.568;2022-10-22T01:13:54;7.55;88.34
71128;SHT30;59249;59.736;30.568;2022-10-22T01:16:34;7.63;88.45
71128;SHT30;59249;59.736;30.568;2022-10-22T01:19:27;7.57;88.49
71128;SHT30;59249;59.736;30.568;2022-10-22T01:22:04;7.50;88.31
71128;SHT30;59249;59.736;30.568;2022-10-22T01:24:52;7.50;88.34
71128;SHT30;59249;59.736;30.568;2022-10-22T01:27:34;7.38;88.50
71128;SHT30;59249;59.736;30.568;2022-10-22T01:30:11;7.40;88.82
71128;SHT30;59249;59.736;30.568;2022-10-22T01:32:46;7.49;88.78
71128;SHT30;59249;59.736;30.568;2022-10-22T01:35:22;7.47;88.54
71128;SHT30;59249;59.736;30.568;2022-10-22T01:37:56;7.40;88.39
71128;SHT30;59249;59.736;30.568;2022-10-22T01:40:27;7.49;88.38
71128;SHT30;59249;59.736;30.568;2022-10-22T01:42:58;7.44;88.29
71128;SHT30;59249;59.736;30.568;2022-10-22T01:45:33;7.46;88.39
71128;SHT30;59249;59.736;30.568;2022-10-22T01:48:21;7.40;88.53
71128;SHT30;59249;59.736;30.568;2022-10-22T01:51:28;7.44;88.71
71128;SHT30;59249;59.736;30.568;2022-10-22T01:54:07;7.30;88.85
71128;SHT30;59249;59.736;30.568;2022-10-22T01:56:53;7.47;88.80
71128;SHT30;59249;59.736;30.568;2022-10-22T01:59:36;7.42;88.85
71128;SHT30;59249;59.736;30.568;2022-10-22T02:02:22;7.39;88.79
71128;SHT30;59249;59.736;30.568;2022-10-22T02:04:59;7.44;88.73
71128;SHT30;59249;59.736;30.568;2022-10-22T02:07:35;7.39;88.77
71128;SHT30;59249;59.736;30.568;2022-10-22T02:10:08;7.40;88.74
71128;SHT30;59249;59.736;30.568;2022-10-22T02:12:41;7.40;88.80
71128;SHT30;59249;59.736;30.568;2022-10-22T02:15:34;7.34;88.89
71128;SHT30;59249;59.736;30.568;2022-10-22T02:18:08;7.38;88.90
71128;SHT30;59249;59.736;30.568;2022-10-22T02:20:40;7.47;88.73
71128;SHT30;59249;59.736;30.568;2022-10-22T02:23:10;7.51;88.68
71128;SHT30;59249;59.736;30.568;2022-10-22T02:25:43;7.51;88.69
71128;SHT30;59249;59.736;30.568;2022-10-22T02:28:24;7.56;88.68
71128;SHT30;59249;59.736;30.568;2022-10-22T02:30:59;7.56;88.52
71128;SHT30;59249;59.736;30.568;2022-10-22T02:33:36;7.50;88.32
71128;SHT30;59249;59.736;30.568;2022-10-22T02:36:07;7.54;88.51
71128;SHT30;59249;59.736;30.568;2022-10-22T02:38:38;7.51;88.26
71128;SHT30;59249;59.736;30.568;2022-10-22T02:41:08;7.53;88.29
71128;SHT30;59249;59.736;30.568;2022-10-22T02:43:42;7.51;88.30
71128;SHT30;59249;59.736;30.568;2022-10-22T02:46:11;7.49;88.43
71128;SHT30;59249;59.736;30.568;2022-10-22T02:48:41;7.52;88.29
71128;SHT30;59249;59.736;30.568;2022-10-22T02:51:10;7.47;88.22
71128;SHT30;59249;59.736;30.568;2022-10-22T02:53:39;7.44;88.19
71128;SHT30;59249;59.736;30.568;2022-10-22T02:56:08;7.50;88.22
71128;SHT30;59249;59.736;30.568;2022-10-22T02:58:37;7.51;88.25
71128;SHT30;59249;59.736;30.568;2022-10-22T03:01:05;7.52;88.22
71128;SHT30;59249;59.736;30.568;2022-10-22T03:03:38;7.47;88.03
71128;SHT30;59249;59.736;30.568;2022-10-22T03:06:08;7.50;88.16
71128;SHT30;59249;59.736;30.568;2022-10-22T03:08:37;7.51;88.02
71128;SHT30;59249;59.736;30.568;2022-10-22T03:11:06;7.33;87.94
71128;SHT30;59249;59.736;30.568;2022-10-22T03:13:35;7.37;88.07
71128;SHT30;59249;59.736;30.568;2022-10-22T03:16:05;7.38;88.29
71128;SHT30;59249;59.736;30.568;2022-10-22T03:18:34;7.32;88.22
71128;SHT30;59249;59.736;30.568;2022-10-22T03:21:11;7.27;88.20
71128;SHT30;59249;59.736;30.568;2022-10-22T03:23:42;7.36;88.43
71128;SHT30;59249;59.736;30.568;2022-10-22T03:26:13;7.27;88.34
71128;SHT30;59249;59.736;30.568;2022-10-22T03:28:42;7.24;88.58
71128;SHT30;59249;59.736;30.568;2022-10-22T03:31:13;7.18;88.40
71128;SHT30;59249;59.736;30.568;2022-10-22T03:33:41;7.30;88.63
71128;SHT30;59249;59.736;30.568;2022-10-22T03:36:12;7.28;88.48
71128;SHT30;59249;59.736;30.568;2022-10-22T03:38:41;7.33;88.28
71128;SHT30;59249;59.736;30.568;2022-10-22T03:41:10;7.30;88.35
71128;SHT30;59249;59.736;30.568;2022-10-22T03:43:39;7.33;88.41
71128;SHT30;59249;59.736;30.568;2022-10-22T03:46:08;7.28;88.33
71128;SHT30;59249;59.736;30.568;2022-10-22T03:48:37;7.28;88.29
71128;SHT30;59249;59.736;30.568;2022-10-22T03:51:06;7.33;88.31
71128;SHT30;59249;59.736;30.568;2022-10-22T03:53:37;7.32;88.28
71128;SHT30;59249;59.736;30.568;2022-10-22T03:56:08;7.28;88.29
71128;SHT30;59249;59.736;30.568;2022-10-22T03:58:39;7.24;88.22
71128;SHT30;59249;59.736;30.568;2022-10-22T04:01:11;7.26;88.33
71128;SHT30;59249;59.736;30.568;2022-10-22T04:03:40;7.33;88.33
71128;SHT30;59249;59.736;30.568;2022-10-22T04:06:11;7.26;88.13
71128;SHT30;59249;59.736;30.568;2022-10-22T04:08:43;7.28;88.18
71128;SHT30;59249;59.736;30.568;2022-10-22T04:11:13;7.18;88.20
71128;SHT30;59249;59.736;30.568;2022-10-22T04:13:43;7.19;88.43
71128;SHT30;59249;59.736;30.568;2022-10-22T04:16:15;7.17;88.24
71128;SHT30;59249;59.736;30.568;2022-10-22T04:18:47;7.22;88.31
71128;SHT30;59249;59.736;30.568;2022-10-22T04:21:18;7.17;88.39
71128;SHT30;59249;59.736;30.568;2022-10-22T04:23:51;7.05;88.56
71128;SHT30;59249;59.736;30.568;2022-10-22T04:26:20;7.19;88.34
71128;SHT30;59249;59.736;30.568;2022-10-22T04:28:51;7.15;88.34
71128;SHT30;59249;59.736;30.568;2022-10-22T04:31:23;7.14;88.52
71128;SHT30;59249;59.736;30.568;2022-10-22T04:33:53;7.08;88.64
71128;SHT30;59249;59.736;30.568;2022-10-22T04:36:23;7.13;88.46
71128;SHT30;59249;59.736;30.568;2022-10-22T04:38:56;7.12;88.56
71128;SHT30;59249;59.736;30.568;2022-10-22T04:41:28;7.15;88.51
71128;SHT30;59249;59.736;30.568;2022-10-22T04:43:58;7.18;88.47
71128;SHT30;59249;59.736;30.568;2022-10-22T04:46:29;7.18;88.45
71128;SHT30;59249;59.736;30.568;2022-10-22T04:48:58;7.15;88.63
71128;SHT30;59249;59.736;30.568;2022-10-22T04:51:30;7.03;88.67
71128;SHT30;59249;59.736;30.568;2022-10-22T04:54:00;7.09;88.77
71128;SHT30;59249;59.736;30.568;2022-10-22T04:56:30;7.03;88.68
71128;SHT30;59249;59.736;30.568;2022-10-22T04:59:02;7.15;88.75
71128;SHT30;59249;59.736;30.568;2022-10-22T05:01:34;7.15;88.74
71128;SHT30;59249;59.736;30.568;2022-10-22T05:04:12;7.17;88.51
71128;SHT30;59249;59.736;30.568;2022-10-22T05:06:42;7.26;88.73
71128;SHT30;59249;59.736;30.568;2022-10-22T05:09:15;7.24;88.50
71128;SHT30;59249;59.736;30.568;2022-10-22T05:11:47;7.30;88.43
71128;SHT30;59249;59.736;30.568;2022-10-22T05:14:19;7.35;88.18
71128;SHT30;59249;59.736;30.568;2022-10-22T05:16:49;7.30;88.22
71128;SHT30;59249;59.736;30.568;2022-10-22T05:19:20;7.34;88.06
71128;SHT30;59249;59.736;30.568;2022-10-22T05:21:50;7.35;88.21
71128;SHT30;59249;59.736;30.568;2022-10-22T05:24:21;7.32;88.07
71128;SHT30;59249;59.736;30.568;2022-10-22T05:26:50;7.35;88.16
71128;SHT30;59249;59.736;30.568;2022-10-22T05:29:20;7.46;88.12
71128;SHT30;59249;59.736;30.568;2022-10-22T05:31:49;7.40;88.06
71128;SHT30;59249;59.736;30.568;2022-10-22T05:34:18;7.42;87.93
71128;SHT30;59249;59.736;30.568;2022-10-22T05:36:47;7.50;87.78
71128;SHT30;59249;59.736;30.568;2022-10-22T05:39:16;7.47;87.73
71128;SHT30;59249;59.736;30.568;2022-10-22T05:41:46;7.55;87.65
71128;SHT30;59249;59.736;30.568;2022-10-22T05:44:15;7.51;87.59
71128;SHT30;59249;59.736;30.568;2022-10-22T05:46:44;7.54;87.66
71128;SHT30;59249;59.736;30.568;2022-10-22T05:49:14;7.51;87.41
71128;SHT30;59249;59.736;30.568;2022-10-22T05:51:43;7.51;87.42
71128;SHT30;59249;59.736;30.568;2022-10-22T05:54:17;7.47;87.51
71128;SHT30;59249;59.736;30.568;2022-10-22T05:56:48;7.47;87.39
71128;SHT30;59249;59.736;30.568;2022-10-22T05:59:17;7.53;87.45
71128;SHT30;59249;59.736;30.568;2022-10-22T06:01:46;7.48;87.40
71128;SHT30;59249;59.736;30.568;2022-10-22T06:04:15;7.45;87.53
71128;SHT30;59249;59.736;30.568;2022-10-22T06:06:45;7.51;87.35
71128;SHT30;59249;59.736;30.568;2022-10-22T06:09:20;7.50;87.51
71128;SHT30;59249;59.736;30.568;2022-10-22T06:11:53;7.46;87.60
71128;SHT30;59249;59.736;30.568;2022-10-22T06:14:24;7.51;87.39
71128;SHT30;59249;59.736;30.568;2022-10-22T06:16:54;7.56;88.22
71128;SHT30;59249;59.736;30.568;2022-10-22T06:19:23;7.68;87.67
71128;SHT30;59249;59.736;30.568;2022-10-22T06:21:55;7.66;87.40
71128;SHT30;59249;59.736;30.568;2022-10-22T06:24:24;7.67;87.26
71128;SHT30;59249;59.736;30.568;2022-10-22T06:26:55;7.75;87.18
71128;SHT30;59249;59.736;30.568;2022-10-22T06:29:25;7.75;87.11
71128;SHT30;59249;59.736;30.568;2022-10-22T06:32:01;7.84;87.03
71128;SHT30;59249;59.736;30.568;2022-10-22T06:34:30;7.86;87.06
71128;SHT30;59249;59.736;30.568;2022-10-22T06:37:08;7.86;87.05
71128;SHT30;59249;59.736;30.568;2022-10-22T06:39:37;7.88;87.09
71128;SHT30;59249;59.736;30.568;2022-10-22T06:42:11;7.85;86.82
71128;SHT30;59249;59.736;30.568;2022-10-22T06:44:40;7.94;86.97
71128;SHT30;59249;59.736;30.568;2022-10-22T06:47:09;7.91;86.86
71128;SHT30;59249;59.736;30.568;2022-10-22T06:49:39;8.05;86.79
71128;SHT30;59249;59.736;30.568;2022-10-22T06:52:10;8.12;86.61
71128;SHT30;59249;59.736;30.568;2022-10-22T06:54:41;8.12;86.40
71128;SHT30;59249;59.736;30.568;2022-10-22T06:57:11;8.13;86.30
71128;SHT30;59249;59.736;30.568;2022-10-22T06:59:40;8.12;86.34
71128;SHT30;59249;59.736;30.568;2022-10-22T07:02:09;7.98;86.33
71128;SHT30;59249;59.736;30.568;2022-10-22T07:04:37;8.07;86.30
71128;SHT30;59249;59.736;30.568;2022-10-22T07:07:06;8.10;86.42
71128;SHT30;59249;59.736;30.568;2022-10-22T07:09:35;8.06;86.54
71128;SHT30;59249;59.736;30.568;2022-10-22T07:12:06;8.07;86.53
71128;SHT30;59249;59.736;30.568;2022-10-22T07:14:36;8.19;86.34
71128;SHT30;59249;59.736;30.568;2022-10-22T07:17:05;8.13;85.77
71128;SHT30;59249;59.736;30.568;2022-10-22T07:19:34;8.21;85.81
71128;SHT30;59249;59.736;30.568;2022-10-22T07:22:02;8.31;85.76
71128;SHT30;59249;59.736;30.568;2022-10-22T07:24:31;8.35;85.59
71128;SHT30;59249;59.736;30.568;2022-10-22T07:27:00;8.42;85.53
71128;SHT30;59249;59.736;30.568;2022-10-22T07:29:40;8.36;85.22
71128;SHT30;59249;59.736;30.568;2022-10-22T07:32:11;8.33;85.31
71128;SHT30;59249;59.736;30.568;2022-10-22T07:34:39;8.33;85.41
71128;SHT30;59249;59.736;30.568;2022-10-22T07:37:10;8.41;85.42
71128;SHT30;59249;59.736;30.568;2022-10-22T07:39:39;8.45;85.38
71128;SHT30;59249;59.736;30.568;2022-10-22T07:42:07;8.57;85.35
71128;SHT30;59249;59.736;30.568;2022-10-22T07:44:40;8.61;85.13
71128;SHT30;59249;59.736;30.568;2022-10-22T07:47:09;8.63;85.02
71128;SHT30;59249;59.736;30.568;2022-10-22T07:49:38;8.68;84.92
71128;SHT30;59249;59.736;30.568;2022-10-22T07:52:07;8.73;84.96
71128;SHT30;59249;59.736;30.568;2022-10-22T07:54:35;8.82;84.97
71128;SHT30;59249;59.736;30.568;2022-10-22T07:57:04;8.89;84.80
71128;SHT30;59249;59.736;30.568;2022-10-22T07:59:33;8.98;84.79
71128;SHT30;59249;59.736;30.568;2022-10-22T08:02:03;9.08;84.62
71128;SHT30;59249;59.736;30.568;2022-10-22T08:04:32;9.15;84.40
71128;SHT30;59249;59.736;30.568;2022-10-22T08:07:01;9.19;84.17
71128;SHT30;59249;59.736;30.568;2022-10-22T08:09:30;9.13;84.09
71128;SHT30;59249;59.736;30.568;2022-10-22T08:11:59;9.14;84.11
71128;SHT30;59249;59.736;30.568;2022-10-22T08:14:28;9.15;84.00
71128;SHT30;59249;59.736;30.568;2022-10-22T08:16:57;9.12;84.12
71128;SHT30;59249;59.736;30.568;2022-10-22T08:19:27;9.13;84.08
71128;SHT30;59249;59.736;30.568;2022-10-22T08:21:58;9.19;83.94
71128;SHT30;59249;59.736;30.568;2022-10-22T08:24:27;9.11;83.70
71128;SHT30;59249;59.736;30.568;2022-10-22T08:26:56;9.17;83.61
71128;SHT30;59249;59.736;30.568;2022-10-22T08:29:25;9.23;83.77
71128;SHT30;59249;59.736;30.568;2022-10-22T08:31:54;9.21;83.77
71128;SHT30;59249;59.736;30.568;2022-10-22T08:34:22;9.21;83.79
71128;SHT30;59249;59.736;30.568;2022-10-22T08:36:53;9.26;83.80
71128;SHT30;59249;59.736;30.568;2022-10-22T08:39:22;9.34;83.73
71128;SHT30;59249;59.736;30.568;2022-10-22T08:42:05;9.35;83.49
71128;SHT30;59249;59.736;30.568;2022-10-22T08:45:02;9.41;83.21
71128;SHT30;59249;59.736;30.568;2022-10-22T08:48:01;9.49;83.25
71128;SHT30;59249;59.736;30.568;2022-10-22T08:50:36;9.61;83.51
71128;SHT30;59249;59.736;30.568;2022-10-22T08:53:13;9.66;82.95
71128;SHT30;59249;59.736;30.568;2022-10-22T08:55:44;9.70;82.65
71128;SHT30;59249;59.736;30.568;2022-10-22T08:58:20;9.72;82.36
71128;SHT30;59249;59.736;30.568;2022-10-22T09:01:00;9.80;82.39
71128;SHT30;59249;59.736;30.568;2022-10-22T09:03:40;9.80;82.03
71128;SHT30;59249;59.736;30.568;2022-10-22T09:06:14;9.73;82.04
71128;SHT30;59249;59.736;30.568;2022-10-22T09:08:53;9.71;82.20
71128;SHT30;59249;59.736;30.568;2022-10-22T09:11:28;9.67;82.00
71128;SHT30;59249;59.736;30.568;2022-10-22T09:13:59;9.69;81.87
71128;SHT30;59249;59.736;30.568;2022-10-22T09:16:37;9.55;82.23
71128;SHT30;59249;59.736;30.568;2022-10-22T09:19:20;9.59;81.73
71128;SHT30;59249;59.736;30.568;2022-10-22T09:22:01;9.65;81.91
71128;SHT30;59249;59.736;30.568;2022-10-22T09:24:40;9.71;81.80
71128;SHT30;59249;59.736;30.568;2022-10-22T09:27:15;9.66;81.46
71128;SHT30;59249;59.736;30.568;2022-10-22T09:29:46;9.70;81.56
71128;SHT30;59249;59.736;30.568;2022-10-22T09:32:16;9.68;81.59
71128;SHT30;59249;59.736;30.568;2022-10-22T09:34:48;9.64;81.54
71128;SHT30;59249;59.736;30.568;2022-10-22T09:37:24;9.68;81.42
71128;SHT30;59249;59.736;30.568;2022-10-22T09:39:56;9.74;81.39
71128;SHT30;59249;59.736;30.568;2022-10-22T09:42:26;9.81;81.51
71128;SHT30;59249;59.736;30.568;2022-10-22T09:44:58;9.86;81.43
71128;SHT30;59249;59.736;30.568;2022-10-22T09:47:33;9.85;81.25
71128;SHT30;59249;59.736;30.568;2022-10-22T09:50:28;9.80;81.20
71128;SHT30;59249;59.736;30.568;2022-10-22T09:53:03;9.86;81.29
71128;SHT30;59249;59.736;30.568;2022-10-22T09:55:37;9.91;81.61
71128;SHT30;59249;59.736;30.568;2022-10-22T09:58:12;9.94;81.62
71128;SHT30;59249;59.736;30.568;2022-10-22T10:00:46;10.03;81.13
71128;SHT30;59249;59.736;30.568;2022-10-22T10:03:17;10.10;81.24
71128;SHT30;59249;59.736;30.568;2022-10-22T10:05:48;10.13;81.02
71128;SHT30;59249;59.736;30.568;2022-10-22T10:08:18;10.07;80.70
71128;SHT30;59249;59.736;30.568;2022-10-22T10:10:52;10.16;80.78
71128;SHT30;59249;59.736;30.568;2022-10-22T10:13:37;10.14;80.54
71128;SHT30;59249;59.736;30.568;2022-10-22T10:16:27;9.99;80.43
71128;SHT30;59249;59.736;30.568;2022-10-22T10:19:16;10.14;80.66
71128;SHT30;59249;59.736;30.568;2022-10-22T10:21:59;10.20;80.52
71128;SHT30;59249;59.736;30.568;2022-10-22T10:24:51;10.17;80.43
71128;SHT30;59249;59.736;30.568;2022-10-22T10:27:31;10.18;80.46
71128;SHT30;59249;59.736;30.568;2022-10-22T10:30:10;10.19;80.06
71128;SHT30;59249;59.736;30.568;2022-10-22T10:33:10;10.21;80.06
71128;SHT30;59249;59.736;30.568;2022-10-22T10:35:55;10.24;80.04
71128;SHT30;59249;59.736;30.568;2022-10-22T10:38:41;10.17;80.11
71128;SHT30;59249;59.736;30.568;2022-10-22T10:41:21;10.22;80.17
71128;SHT30;59249;59.736;30.568;2022-10-22T10:44:40;10.26;80.04
71128;SHT30;59249;59.736;30.568;2022-10-22T10:47:45;10.38;79.70
71128;SHT30;59249;59.736;30.568;2022-10-22T10:50:25;10.41;79.61
71128;SHT30;59249;59.736;30.568;2022-10-22T10:53:09;10.37;79.28
71128;SHT30;59249;59.736;30.568;2022-10-22T10:55:56;10.42;79.24
71128;SHT30;59249;59.736;30.568;2022-10-22T10:58:40;10.38;79.22
71128;SHT30;59249;59.736;30.568;2022-10-22T11:01:30;10.30;79.58
71128;SHT30;59249;59.736;30.568;2022-10-22T11:07:20;10.35;80.00
71128;SHT30;59249;59.736;30.568;2022-10-22T11:10:09;10.43;79.97
71128;SHT30;59249;59.736;30.568;2022-10-22T11:12:45;10.33;79.81
71128;SHT30;59249;59.736;30.568;2022-10-22T11:15:25;10.29;79.69
71128;SHT30;59249;59.736;30.568;2022-10-22T11:18:04;10.32;79.73
71128;SHT30;59249;59.736;30.568;2022-10-22T11:20:48;10.35;79.64
71128;SHT30;59249;59.736;30.568;2022-10-22T11:23:26;10.27;79.47
71128;SHT30;59249;59.736;30.568;2022-10-22T11:25:58;10.33;79.56
71128;SHT30;59249;59.736;30.568;2022-10-22T11:28:34;10.31;79.33
71128;SHT30;59249;59.736;30.568;2022-10-22T11:31:13;10.24;79.38
71128;SHT30;59249;59.736;30.568;2022-10-22T11:33:51;10.25;79.36
71128;SHT30;59249;59.736;30.568;2022-10-22T11:36:43;10.22;79.27
71128;SHT30;59249;59.736;30.568;2022-10-22T11:39:35;10.01;79.19
71128;SHT30;59249;59.736;30.568;2022-10-22T11:42:09;9.97;79.36
71128;SHT30;59249;59.736;30.568;2022-10-22T11:44:47;9.90;79.39
71128;SHT30;59249;59.736;30.568;2022-10-22T11:47:26;9.89;79.63
71128;SHT30;59249;59.736;30.568;2022-10-22T11:50:14;9.89;79.74
71128;SHT30;59249;59.736;30.568;2022-10-22T11:53:03;9.90;79.47
71128;SHT30;59249;59.736;30.568;2022-10-22T11:55:46;9.89;79.64
71128;SHT30;59249;59.736;30.568;2022-10-22T11:58:38;9.85;79.64
71128;SHT30;59249;59.736;30.568;2022-10-22T12:01:28;9.84;79.65
71128;SHT30;59249;59.736;30.568;2022-10-22T12:04:18;9.89;79.99
71128;SHT30;59249;59.736;30.568;2022-10-22T12:06:57;9.85;79.95
71128;SHT30;59249;59.736;30.568;2022-10-22T12:09:28;9.77;79.97
71128;SHT30;59249;59.736;30.568;2022-10-22T12:12:11;9.80;79.76
71128;SHT30;59249;59.736;30.568;2022-10-22T12:14:53;9.76;79.93
71128;SHT30;59249;59.736;30.568;2022-10-22T12:17:26;9.78;79.80
71128;SHT30;59249;59.736;30.568;2022-10-22T12:20:03;9.75;79.82
71128;SHT30;59249;59.736;30.568;2022-10-22T12:22:37;9.75;79.78
71128;SHT30;59249;59.736;30.568;2022-10-22T12:25:16;9.78;79.95
71128;SHT30;59249;59.736;30.568;2022-10-22T12:27:50;9.83;79.99
71128;SHT30;59249;59.736;30.568;2022-10-22T12:30:23;9.80;80.07
71128;SHT30;59249;59.736;30.568;2022-10-22T12:32:56;9.84;80.13
71128;SHT30;59249;59.736;30.568;2022-10-22T12:35:28;9.78;80.19
71128;SHT30;59249;59.736;30.568;2022-10-22T12:38:02;9.77;80.26
71128;SHT30;59249;59.736;30.568;2022-10-22T12:40:34;9.69;80.22
71128;SHT30;59249;59.736;30.568;2022-10-22T12:43:11;9.78;80.17
71128;SHT30;59249;59.736;30.568;2022-10-22T12:45:43;9.73;80.32
71128;SHT30;59249;59.736;30.568;2022-10-22T12:48:18;9.77;80.20
71128;SHT30;59249;59.736;30.568;2022-10-22T12:50:51;9.76;80.06
71128;SHT30;59249;59.736;30.568;2022-10-22T12:53:28;9.71;80.14
71128;SHT30;59249;59.736;30.568;2022-10-22T12:56:03;9.72;80.08
71128;SHT30;59249;59.736;30.568;2022-10-22T12:58:38;9.66;80.14
71128;SHT30;59249;59.736;30.568;2022-10-22T13:01:11;9.69;80.18
71128;SHT30;59249;59.736;30.568;2022-10-22T13:03:43;9.66;80.18
71128;SHT30;59249;59.736;30.568;2022-10-22T13:06:22;9.66;80.25
71128;SHT30;59249;59.736;30.568;2022-10-22T13:09:10;9.63;80.14
71128;SHT30;59249;59.736;30.568;2022-10-22T13:11:48;9.52;80.32
71128;SHT30;59249;59.736;30.568;2022-10-22T13:14:26;9.64;80.52
71128;SHT30;59249;59.736;30.568;2022-10-22T13:17:11;9.55;80.61
71128;SHT30;59249;59.736;30.568;2022-10-22T13:19:59;9.54;80.65
71128;SHT30;59249;59.736;30.568;2022-10-22T13:22:34;9.54;81.14
71128;SHT30;59249;59.736;30.568;2022-10-22T13:25:21;9.45;81.01
71128;SHT30;59249;59.736;30.568;2022-10-22T13:27:53;9.43;81.12
71128;SHT30;59249;59.736;30.568;2022-10-22T13:30:25;9.44;81.26
71128;SHT30;59249;59.736;30.568;2022-10-22T13:32:57;9.50;81.11
71128;SHT30;59249;59.736;30.568;2022-10-22T13:35:29;9.44;81.39
71128;SHT30;59249;59.736;30.568;2022-10-22T13:37:59;9.45;81.43
71128;SHT30;59249;59.736;30.568;2022-10-22T13:40:29;9.48;81.42
71128;SHT30;59249;59.736;30.568;2022-10-22T13:42:58;9.46;81.40
71128;SHT30;59249;59.736;30.568;2022-10-22T13:45:27;9.46;81.45
71128;SHT30;59249;59.736;30.568;2022-10-22T13:47:56;9.39;81.40
71128;SHT30;59249;59.736;30.568;2022-10-22T13:50:25;9.36;81.62
71128;SHT30;59249;59.736;30.568;2022-10-22T13:52:57;9.33;81.49
71128;SHT30;59249;59.736;30.568;2022-10-22T13:55:29;9.30;81.66
71128;SHT30;59249;59.736;30.568;2022-10-22T13:58:08;9.27;81.68
71128;SHT30;59249;59.736;30.568;2022-10-22T14:00:39;9.22;81.71
71128;SHT30;59249;59.736;30.568;2022-10-22T14:03:10;9.22;81.68
71128;SHT30;59249;59.736;30.568;2022-10-22T14:05:40;9.19;81.81
71128;SHT30;59249;59.736;30.568;2022-10-22T14:08:12;9.10;81.88
71128;SHT30;59249;59.736;30.568;2022-10-22T14:10:43;9.12;81.90
71128;SHT30;59249;59.736;30.568;2022-10-22T14:13:12;9.05;82.35
71128;SHT30;59249;59.736;30.568;2022-10-22T14:15:42;9.05;82.33
71128;SHT30;59249;59.736;30.568;2022-10-22T14:18:16;9.03;82.46
71128;SHT30;59249;59.736;30.568;2022-10-22T14:20:54;9.01;82.47
71128;SHT30;59249;59.736;30.568;2022-10-22T14:23:26;8.95;82.51
71128;SHT30;59249;59.736;30.568;2022-10-22T14:25:58;8.96;82.46
71128;SHT30;59249;59.736;30.568;2022-10-22T14:28:27;8.99;82.41
71128;SHT30;59249;59.736;30.568;2022-10-22T14:31:03;8.99;82.49
71128;SHT30;59249;59.736;30.568;2022-10-22T14:33:33;8.99;82.37
71128;SHT30;59249;59.736;30.568;2022-10-22T14:36:02;8.94;82.55
71128;SHT30;59249;59.736;30.568;2022-10-22T14:38:30;8.98;82.56
71128;SHT30;59249;59.736;30.568;2022-10-22T14:41:01;8.94;82.47
71128;SHT30;59249;59.736;30.568;2022-10-22T14:43:30;8.93;82.58
71128;SHT30;59249;59.736;30.568;2022-10-22T14:45:59;8.89;82.50
71128;SHT30;59249;59.736;30.568;2022-10-22T14:48:27;8.89;82.45
71128;SHT30;59249;59.736;30.568;2022-10-22T14:50:56;8.93;82.15
71128;SHT30;59249;59.736;30.568;2022-10-22T14:53:25;8.88;81.91
71128;SHT30;59249;59.736;30.568;2022-10-22T14:55:55;8.84;81.73
71128;SHT30;59249;59.736;30.568;2022-10-22T14:58:27;8.79;81.41
71128;SHT30;59249;59.736;30.568;2022-10-22T15:00:56;8.80;81.23
71128;SHT30;59249;59.736;30.568;2022-10-22T15:03:25;8.78;81.15
71128;SHT30;59249;59.736;30.568;2022-10-22T15:05:53;8.75;80.91
71128;SHT30;59249;59.736;30.568;2022-10-22T15:08:23;8.71;80.72
71128;SHT30;59249;59.736;30.568;2022-10-22T15:10:58;8.66;80.77
71128;SHT30;59249;59.736;30.568;2022-10-22T15:13:29;8.60;80.57
71128;SHT30;59249;59.736;30.568;2022-10-22T15:15:59;8.62;80.52
71128;SHT30;59249;59.736;30.568;2022-10-22T15:18:28;8.59;80.57
71128;SHT30;59249;59.736;30.568;2022-10-22T15:20:59;8.59;80.39
71128;SHT30;59249;59.736;30.568;2022-10-22T15:23:28;8.58;80.38
71128;SHT30;59249;59.736;30.568;2022-10-22T15:25:58;8.55;80.49
71128;SHT30;59249;59.736;30.568;2022-10-22T15:28:28;8.58;80.71
71128;SHT30;59249;59.736;30.568;2022-10-22T15:30:59;8.56;80.53
71128;SHT30;59249;59.736;30.568;2022-10-22T15:33:28;8.56;80.74
71128;SHT30;59249;59.736;30.568;2022-10-22T15:35:57;8.55;80.64
71128;SHT30;59249;59.736;30.568;2022-10-22T15:38:27;8.54;80.62
71128;SHT30;59249;59.736;30.568;2022-10-22T15:41:01;8.51;80.87
71128;SHT30;59249;59.736;30.568;2022-10-22T15:43:34;8.55;80.72
71128;SHT30;59249;59.736;30.568;2022-10-22T15:46:13;8.45;80.85
71128;SHT30;59249;59.736;30.568;2022-10-22T15:48:42;8.52;80.88
71128;SHT30;59249;59.736;30.568;2022-10-22T15:51:14;8.49;80.88
71128;SHT30;59249;59.736;30.568;2022-10-22T15:53:43;8.46;81.10
71128;SHT30;59249;59.736;30.568;2022-10-22T15:56:18;8.46;81.22
71128;SHT30;59249;59.736;30.568;2022-10-22T15:58:52;8.49;81.12
71128;SHT30;59249;59.736;30.568;2022-10-22T16:01:22;8.51;81.09
71128;SHT30;59249;59.736;30.568;2022-10-22T16:03:53;8.41;81.34
71128;SHT30;59249;59.736;30.568;2022-10-22T16:06:28;8.39;81.34
71128;SHT30;59249;59.736;30.568;2022-10-22T16:09:00;8.38;81.33
71128;SHT30;59249;59.736;30.568;2022-10-22T16:11:30;8.40;81.56
71128;SHT30;59249;59.736;30.568;2022-10-22T16:14:01;8.33;81.70